sensor_id;sensor_type;location;lat;lon;timestamp;P1;durP1;ratioP1;P2;durP2;ratioP2
11384;SDS011;5747;56.748;13.882;2023-08-21T00:01:12;9.23;;;4.23;;
11384;SDS011;5747;56.748;13.882;2023-08-21T00:03:40;14.03;;;4.17;;
11384;SDS011;5747;56.748;13.882;2023-08-21T00:06:09;16.57;;;4.90;;
11384;SDS011;5747;56.748;13.882;2023-08-21T00:08:37;11.97;;;4.47;;
11384;SDS011;5747;56.748;13.882;2023-08-21T00:11:05;7.80;;;4.13;;
11384;SDS011;5747;56.748;13.882;2023-08-21T00:13:33;20.57;;;5.03;;
11384;SDS011;5747;56.748;13.882;2023-08-21T00:16:02;13.37;;;4.60;;
11384;SDS011;5747;56.748;13.882;2023-08-21T00:18:31;22.27;;;4.87;;
11384;SDS011;5747;56.748;13.882;2023-08-21T00:20:59;15.03;;;4.73;;
11384;SDS011;5747;56.748;13.882;2023-08-21T00:23:29;16.30;;;5.00;;
11384;SDS011;5747;56.748;13.882;2023-08-21T00:25:57;15.07;;;4.83;;
11384;SDS011;5747;56.748;13.882;2023-08-21T00:28:25;14.17;;;4.17;;
11384;SDS011;5747;56.748;13.882;2023-08-21T00:31:02;14.00;;;4.87;;
11384;SDS011;5747;56.748;13.882;2023-08-21T00:33:32;13.30;;;4.40;;
11384;SDS011;5747;56.748;13.882;2023-08-21T00:36:00;11.57;;;4.40;;
11384;SDS011;5747;56.748;13.882;2023-08-21T00:38:29;10.90;;;4.60;;
11384;SDS011;5747;56.748;13.882;2023-08-21T00:40:58;11.93;;;4.77;;
11384;SDS011;5747;56.748;13.882;2023-08-21T00:43:26;10.20;;;4.70;;
11384;SDS011;5747;56.748;13.882;2023-08-21T00:45:54;8.07;;;4.80;;
11384;SDS011;5747;56.748;13.882;2023-08-21T00:48:22;7.73;;;4.63;;
11384;SDS011;5747;56.748;13.882;2023-08-21T00:50:52;5.70;;;4.47;;
11384;SDS011;5747;56.748;13.882;2023-08-21T00:53:21;9.40;;;4.90;;
11384;SDS011;5747;56.748;13.882;2023-08-21T00:55:51;9.53;;;4.60;;
11384;SDS011;5747;56.748;13.882;2023-08-21T00:58:19;10.90;;;4.83;;
11384;SDS011;5747;56.748;13.882;2023-08-21T01:00:48;13.30;;;5.13;;
11384;SDS011;5747;56.748;13.882;2023-08-21T01:03:18;11.80;;;5.63;;
11384;SDS011;5747;56.748;13.882;2023-08-21T01:05:46;16.10;;;6.20;;
11384;SDS011;5747;56.748;13.882;2023-08-21T01:08:17;9.03;;;4.90;;
11384;SDS011;5747;56.748;13.882;2023-08-21T01:10:50;9.30;;;5.20;;
11384;SDS011;5747;56.748;13.882;2023-08-21T01:13:24;16.97;;;6.10;;
11384;SDS011;5747;56.748;13.882;2023-08-21T01:16:00;15.37;;;5.43;;
11384;SDS011;5747;56.748;13.882;2023-08-21T01:18:31;17.60;;;5.27;;
11384;SDS011;5747;56.748;13.882;2023-08-21T01:21:02;20.10;;;5.83;;
11384;SDS011;5747;56.748;13.882;2023-08-21T01:23:33;15.07;;;4.90;;
11384;SDS011;5747;56.748;13.882;2023-08-21T01:26:01;6.10;;;4.33;;
11384;SDS011;5747;56.748;13.882;2023-08-21T01:28:31;12.83;;;5.53;;
11384;SDS011;5747;56.748;13.882;2023-08-21T01:31:15;5.73;;;4.73;;
11384;SDS011;5747;56.748;13.882;2023-08-21T01:33:48;6.53;;;4.57;;
11384;SDS011;5747;56.748;13.882;2023-08-21T01:36:18;9.77;;;5.00;;
11384;SDS011;5747;56.748;13.882;2023-08-21T01:38:49;6.13;;;4.90;;
11384;SDS011;5747;56.748;13.882;2023-08-21T01:41:18;8.50;;;4.30;;
11384;SDS011;5747;56.748;13.882;2023-08-21T01:43:46;5.60;;;4.23;;
11384;SDS011;5747;56.748;13.882;2023-08-21T01:46:14;5.73;;;4.43;;
11384;SDS011;5747;56.748;13.882;2023-08-21T01:48:42;7.80;;;4.80;;
11384;SDS011;5747;56.748;13.882;2023-08-21T01:51:10;10.00;;;4.50;;
11384;SDS011;5747;56.748;13.882;2023-08-21T01:53:38;8.90;;;4.93;;
11384;SDS011;5747;56.748;13.882;2023-08-21T01:56:08;6.83;;;4.90;;
11384;SDS011;5747;56.748;13.882;2023-08-21T01:58:37;8.33;;;4.70;;
11384;SDS011;5747;56.748;13.882;2023-08-21T02:01:05;8.10;;;5.40;;
11384;SDS011;5747;56.748;13.882;2023-08-21T02:03:33;15.43;;;6.00;;
11384;SDS011;5747;56.748;13.882;2023-08-21T02:06:02;18.00;;;6.40;;
11384;SDS011;5747;56.748;13.882;2023-08-21T02:08:32;13.87;;;6.07;;
11384;SDS011;5747;56.748;13.882;2023-08-21T02:11:01;13.27;;;5.77;;
11384;SDS011;5747;56.748;13.882;2023-08-21T02:13:30;16.87;;;5.60;;
11384;SDS011;5747;56.748;13.882;2023-08-21T02:16:00;12.87;;;5.17;;
11384;SDS011;5747;56.748;13.882;2023-08-21T02:18:28;11.50;;;5.53;;
11384;SDS011;5747;56.748;13.882;2023-08-21T02:20:56;26.77;;;6.77;;
11384;SDS011;5747;56.748;13.882;2023-08-21T02:23:25;21.90;;;7.33;;
11384;SDS011;5747;56.748;13.882;2023-08-21T02:25:53;18.43;;;6.27;;
11384;SDS011;5747;56.748;13.882;2023-08-21T02:28:21;12.53;;;6.33;;
11384;SDS011;5747;56.748;13.882;2023-08-21T02:30:50;14.87;;;6.17;;
11384;SDS011;5747;56.748;13.882;2023-08-21T02:33:18;14.10;;;6.13;;
11384;SDS011;5747;56.748;13.882;2023-08-21T02:35:47;12.50;;;6.03;;
11384;SDS011;5747;56.748;13.882;2023-08-21T02:38:15;17.50;;;6.43;;
11384;SDS011;5747;56.748;13.882;2023-08-21T02:40:43;9.97;;;6.33;;
11384;SDS011;5747;56.748;13.882;2023-08-21T02:43:11;12.30;;;5.90;;
11384;SDS011;5747;56.748;13.882;2023-08-21T02:45:39;12.57;;;5.80;;
11384;SDS011;5747;56.748;13.882;2023-08-21T02:48:09;11.83;;;5.50;;
11384;SDS011;5747;56.748;13.882;2023-08-21T02:50:38;9.00;;;5.87;;
11384;SDS011;5747;56.748;13.882;2023-08-21T02:53:06;11.67;;;5.40;;
11384;SDS011;5747;56.748;13.882;2023-08-21T02:55:34;6.80;;;5.20;;
11384;SDS011;5747;56.748;13.882;2023-08-21T02:58:02;11.27;;;5.80;;
11384;SDS011;5747;56.748;13.882;2023-08-21T03:00:30;10.50;;;5.53;;
11384;SDS011;5747;56.748;13.882;2023-08-21T03:02:59;9.67;;;5.87;;
11384;SDS011;5747;56.748;13.882;2023-08-21T03:05:28;7.73;;;6.17;;
11384;SDS011;5747;56.748;13.882;2023-08-21T03:07:56;10.57;;;6.13;;
11384;SDS011;5747;56.748;13.882;2023-08-21T03:10:25;6.60;;;5.87;;
11384;SDS011;5747;56.748;13.882;2023-08-21T03:12:54;10.07;;;5.77;;
11384;SDS011;5747;56.748;13.882;2023-08-21T03:15:22;14.10;;;5.70;;
11384;SDS011;5747;56.748;13.882;2023-08-21T03:17:50;11.13;;;5.30;;
11384;SDS011;5747;56.748;13.882;2023-08-21T03:20:19;5.60;;;5.00;;
11384;SDS011;5747;56.748;13.882;2023-08-21T03:22:50;7.17;;;5.00;;
11384;SDS011;5747;56.748;13.882;2023-08-21T03:25:18;6.83;;;4.90;;
11384;SDS011;5747;56.748;13.882;2023-08-21T03:27:46;5.57;;;4.97;;
11384;SDS011;5747;56.748;13.882;2023-08-21T03:30:16;8.90;;;5.27;;
11384;SDS011;5747;56.748;13.882;2023-08-21T03:32:44;7.90;;;5.60;;
11384;SDS011;5747;56.748;13.882;2023-08-21T03:35:12;8.27;;;5.00;;
11384;SDS011;5747;56.748;13.882;2023-08-21T03:37:41;6.23;;;5.63;;
11384;SDS011;5747;56.748;13.882;2023-08-21T03:40:13;6.67;;;5.53;;
11384;SDS011;5747;56.748;13.882;2023-08-21T03:42:42;11.43;;;5.73;;
11384;SDS011;5747;56.748;13.882;2023-08-21T03:45:10;5.67;;;5.10;;
11384;SDS011;5747;56.748;13.882;2023-08-21T03:47:38;7.57;;;4.90;;
11384;SDS011;5747;56.748;13.882;2023-08-21T03:50:14;6.43;;;4.93;;
11384;SDS011;5747;56.748;13.882;2023-08-21T03:52:43;6.40;;;4.67;;
11384;SDS011;5747;56.748;13.882;2023-08-21T03:55:11;5.73;;;4.20;;
11384;SDS011;5747;56.748;13.882;2023-08-21T03:57:40;6.63;;;4.50;;
11384;SDS011;5747;56.748;13.882;2023-08-21T04:00:09;5.90;;;4.43;;
11384;SDS011;5747;56.748;13.882;2023-08-21T04:02:41;4.70;;;4.10;;
11384;SDS011;5747;56.748;13.882;2023-08-21T04:05:09;6.93;;;4.07;;
11384;SDS011;5747;56.748;13.882;2023-08-21T04:07:38;4.47;;;4.03;;
11384;SDS011;5747;56.748;13.882;2023-08-21T04:10:07;11.93;;;3.70;;
11384;SDS011;5747;56.748;13.882;2023-08-21T04:12:35;223.87;;;9.37;;
11384;SDS011;5747;56.748;13.882;2023-08-21T04:15:06;43.23;;;3.77;;
11384;SDS011;5747;56.748;13.882;2023-08-21T04:17:35;29.20;;;4.47;;
11384;SDS011;5747;56.748;13.882;2023-08-21T04:20:04;29.53;;;4.03;;
11384;SDS011;5747;56.748;13.882;2023-08-21T04:22:33;7.50;;;3.30;;
11384;SDS011;5747;56.748;13.882;2023-08-21T04:25:02;5.33;;;3.97;;
11384;SDS011;5747;56.748;13.882;2023-08-21T04:27:31;11.03;;;3.70;;
11384;SDS011;5747;56.748;13.882;2023-08-21T04:29:59;7.33;;;3.20;;
11384;SDS011;5747;56.748;13.882;2023-08-21T04:32:29;5.20;;;3.07;;
11384;SDS011;5747;56.748;13.882;2023-08-21T04:34:57;8.37;;;3.40;;
11384;SDS011;5747;56.748;13.882;2023-08-21T04:37:25;18.20;;;4.63;;
11384;SDS011;5747;56.748;13.882;2023-08-21T04:39:54;29.37;;;4.10;;
11384;SDS011;5747;56.748;13.882;2023-08-21T04:42:22;3.70;;;3.03;;
11384;SDS011;5747;56.748;13.882;2023-08-21T04:44:50;5.97;;;2.90;;
11384;SDS011;5747;56.748;13.882;2023-08-21T04:47:19;4.97;;;3.47;;
11384;SDS011;5747;56.748;13.882;2023-08-21T04:49:53;4.20;;;3.50;;
11384;SDS011;5747;56.748;13.882;2023-08-21T04:52:22;5.50;;;3.13;;
11384;SDS011;5747;56.748;13.882;2023-08-21T04:54:53;4.50;;;3.63;;
11384;SDS011;5747;56.748;13.882;2023-08-21T04:57:21;5.00;;;3.50;;
11384;SDS011;5747;56.748;13.882;2023-08-21T04:59:50;4.27;;;3.80;;
11384;SDS011;5747;56.748;13.882;2023-08-21T05:02:20;5.43;;;3.90;;
11384;SDS011;5747;56.748;13.882;2023-08-21T05:04:50;7.77;;;3.50;;
11384;SDS011;5747;56.748;13.882;2023-08-21T05:07:20;12.03;;;4.03;;
11384;SDS011;5747;56.748;13.882;2023-08-21T05:09:48;9.73;;;4.23;;
11384;SDS011;5747;56.748;13.882;2023-08-21T05:12:19;12.50;;;5.33;;
11384;SDS011;5747;56.748;13.882;2023-08-21T05:14:47;11.30;;;4.60;;
11384;SDS011;5747;56.748;13.882;2023-08-21T05:17:16;9.37;;;5.13;;
11384;SDS011;5747;56.748;13.882;2023-08-21T05:19:44;18.40;;;5.60;;
11384;SDS011;5747;56.748;13.882;2023-08-21T05:22:12;21.13;;;5.90;;
11384;SDS011;5747;56.748;13.882;2023-08-21T05:24:42;22.97;;;6.40;;
11384;SDS011;5747;56.748;13.882;2023-08-21T05:27:10;34.30;;;7.50;;
11384;SDS011;5747;56.748;13.882;2023-08-21T05:29:38;25.53;;;7.67;;
11384;SDS011;5747;56.748;13.882;2023-08-21T05:32:07;27.33;;;7.90;;
11384;SDS011;5747;56.748;13.882;2023-08-21T05:34:35;36.30;;;8.80;;
11384;SDS011;5747;56.748;13.882;2023-08-21T05:37:03;34.13;;;10.13;;
11384;SDS011;5747;56.748;13.882;2023-08-21T05:39:31;28.57;;;9.77;;
11384;SDS011;5747;56.748;13.882;2023-08-21T05:42:02;20.67;;;9.53;;
11384;SDS011;5747;56.748;13.882;2023-08-21T05:44:30;22.60;;;10.70;;
11384;SDS011;5747;56.748;13.882;2023-08-21T05:46:58;25.97;;;11.60;;
11384;SDS011;5747;56.748;13.882;2023-08-21T05:49:27;28.57;;;12.47;;
11384;SDS011;5747;56.748;13.882;2023-08-21T05:51:55;23.33;;;11.97;;
11384;SDS011;5747;56.748;13.882;2023-08-21T05:54:25;24.67;;;13.00;;
11384;SDS011;5747;56.748;13.882;2023-08-21T05:56:54;20.70;;;12.40;;
11384;SDS011;5747;56.748;13.882;2023-08-21T05:59:30;21.13;;;12.40;;
11384;SDS011;5747;56.748;13.882;2023-08-21T06:02:01;19.87;;;12.60;;
11384;SDS011;5747;56.748;13.882;2023-08-21T06:04:30;22.00;;;12.53;;
11384;SDS011;5747;56.748;13.882;2023-08-21T06:07:00;17.37;;;12.00;;
11384;SDS011;5747;56.748;13.882;2023-08-21T06:09:29;18.53;;;11.80;;
11384;SDS011;5747;56.748;13.882;2023-08-21T06:11:58;21.33;;;12.77;;
11384;SDS011;5747;56.748;13.882;2023-08-21T06:14:29;19.77;;;10.87;;
11384;SDS011;5747;56.748;13.882;2023-08-21T06:17:00;15.03;;;10.40;;
11384;SDS011;5747;56.748;13.882;2023-08-21T06:19:30;17.13;;;10.13;;
11384;SDS011;5747;56.748;13.882;2023-08-21T06:21:58;16.37;;;9.37;;
11384;SDS011;5747;56.748;13.882;2023-08-21T06:24:26;14.73;;;8.77;;
11384;SDS011;5747;56.748;13.882;2023-08-21T06:27:00;10.53;;;8.00;;
11384;SDS011;5747;56.748;13.882;2023-08-21T06:29:29;12.13;;;7.77;;
11384;SDS011;5747;56.748;13.882;2023-08-21T06:31:58;12.23;;;7.57;;
11384;SDS011;5747;56.748;13.882;2023-08-21T06:34:26;14.37;;;8.67;;
11384;SDS011;5747;56.748;13.882;2023-08-21T06:36:55;10.90;;;7.70;;
11384;SDS011;5747;56.748;13.882;2023-08-21T06:39:23;12.73;;;8.00;;
11384;SDS011;5747;56.748;13.882;2023-08-21T06:41:52;11.13;;;8.10;;
11384;SDS011;5747;56.748;13.882;2023-08-21T06:44:30;14.07;;;7.07;;
11384;SDS011;5747;56.748;13.882;2023-08-21T06:46:59;9.33;;;6.27;;
11384;SDS011;5747;56.748;13.882;2023-08-21T06:49:27;9.80;;;6.33;;
11384;SDS011;5747;56.748;13.882;2023-08-21T06:51:56;14.47;;;6.57;;
11384;SDS011;5747;56.748;13.882;2023-08-21T06:54:24;10.27;;;5.50;;
11384;SDS011;5747;56.748;13.882;2023-08-21T06:56:52;14.63;;;6.13;;
11384;SDS011;5747;56.748;13.882;2023-08-21T06:59:20;11.73;;;5.97;;
11384;SDS011;5747;56.748;13.882;2023-08-21T07:01:49;10.73;;;6.10;;
11384;SDS011;5747;56.748;13.882;2023-08-21T07:04:18;8.63;;;5.10;;
11384;SDS011;5747;56.748;13.882;2023-08-21T07:06:46;14.87;;;5.90;;
11384;SDS011;5747;56.748;13.882;2023-08-21T07:09:14;11.50;;;5.17;;
11384;SDS011;5747;56.748;13.882;2023-08-21T07:11:42;10.70;;;5.13;;
11384;SDS011;5747;56.748;13.882;2023-08-21T07:14:10;8.70;;;4.90;;
11384;SDS011;5747;56.748;13.882;2023-08-21T07:16:40;7.07;;;4.17;;
11384;SDS011;5747;56.748;13.882;2023-08-21T07:19:09;8.23;;;3.80;;
11384;SDS011;5747;56.748;13.882;2023-08-21T07:21:37;7.93;;;4.00;;
11384;SDS011;5747;56.748;13.882;2023-08-21T07:24:06;6.40;;;3.70;;
11384;SDS011;5747;56.748;13.882;2023-08-21T07:26:34;10.40;;;3.33;;
11384;SDS011;5747;56.748;13.882;2023-08-21T07:29:02;11.07;;;3.80;;
11384;SDS011;5747;56.748;13.882;2023-08-21T07:31:32;8.60;;;3.60;;
11384;SDS011;5747;56.748;13.882;2023-08-21T07:34:00;9.17;;;3.50;;
11384;SDS011;5747;56.748;13.882;2023-08-21T07:36:30;7.77;;;3.67;;
11384;SDS011;5747;56.748;13.882;2023-08-21T07:38:59;8.40;;;3.47;;
11384;SDS011;5747;56.748;13.882;2023-08-21T07:41:27;7.10;;;3.17;;
11384;SDS011;5747;56.748;13.882;2023-08-21T07:43:55;6.37;;;2.87;;
11384;SDS011;5747;56.748;13.882;2023-08-21T07:46:23;4.90;;;2.90;;
11384;SDS011;5747;56.748;13.882;2023-08-21T07:48:52;8.53;;;2.60;;
11384;SDS011;5747;56.748;13.882;2023-08-21T07:51:20;4.40;;;2.30;;
11384;SDS011;5747;56.748;13.882;2023-08-21T07:53:50;3.47;;;2.60;;
11384;SDS011;5747;56.748;13.882;2023-08-21T07:56:18;7.37;;;2.70;;
11384;SDS011;5747;56.748;13.882;2023-08-21T07:58:46;7.90;;;3.17;;
11384;SDS011;5747;56.748;13.882;2023-08-21T08:01:14;5.80;;;2.67;;
11384;SDS011;5747;56.748;13.882;2023-08-21T08:03:42;5.73;;;3.10;;
11384;SDS011;5747;56.748;13.882;2023-08-21T08:06:10;5.07;;;2.70;;
11384;SDS011;5747;56.748;13.882;2023-08-21T08:08:39;10.43;;;2.60;;
11384;SDS011;5747;56.748;13.882;2023-08-21T08:11:08;6.33;;;2.40;;
11384;SDS011;5747;56.748;13.882;2023-08-21T08:13:36;8.03;;;2.87;;
11384;SDS011;5747;56.748;13.882;2023-08-21T08:16:04;6.60;;;2.60;;
11384;SDS011;5747;56.748;13.882;2023-08-21T08:18:32;4.70;;;2.17;;
11384;SDS011;5747;56.748;13.882;2023-08-21T08:21:01;7.97;;;2.20;;
11384;SDS011;5747;56.748;13.882;2023-08-21T08:23:29;6.60;;;2.70;;
11384;SDS011;5747;56.748;13.882;2023-08-21T08:25:57;5.13;;;2.80;;
11384;SDS011;5747;56.748;13.882;2023-08-21T08:28:26;5.50;;;2.40;;
11384;SDS011;5747;56.748;13.882;2023-08-21T08:30:54;4.87;;;2.67;;
11384;SDS011;5747;56.748;13.882;2023-08-21T08:33:24;5.40;;;2.63;;
11384;SDS011;5747;56.748;13.882;2023-08-21T08:35:52;6.13;;;2.47;;
11384;SDS011;5747;56.748;13.882;2023-08-21T08:38:20;5.23;;;2.40;;
11384;SDS011;5747;56.748;13.882;2023-08-21T08:40:48;7.47;;;2.40;;
11384;SDS011;5747;56.748;13.882;2023-08-21T08:43:21;5.37;;;2.43;;
11384;SDS011;5747;56.748;13.882;2023-08-21T08:45:53;5.93;;;2.30;;
11384;SDS011;5747;56.748;13.882;2023-08-21T08:48:25;7.07;;;2.87;;
11384;SDS011;5747;56.748;13.882;2023-08-21T08:50:54;6.87;;;2.23;;
11384;SDS011;5747;56.748;13.882;2023-08-21T08:53:24;6.77;;;2.57;;
11384;SDS011;5747;56.748;13.882;2023-08-21T08:55:54;8.63;;;2.30;;
11384;SDS011;5747;56.748;13.882;2023-08-21T08:58:22;4.30;;;2.30;;
11384;SDS011;5747;56.748;13.882;2023-08-21T09:00:50;5.87;;;2.10;;
11384;SDS011;5747;56.748;13.882;2023-08-21T09:03:20;6.50;;;2.20;;
11384;SDS011;5747;56.748;13.882;2023-08-21T09:05:48;5.30;;;2.03;;
11384;SDS011;5747;56.748;13.882;2023-08-21T09:08:16;4.97;;;2.30;;
11384;SDS011;5747;56.748;13.882;2023-08-21T09:10:44;8.00;;;2.50;;
11384;SDS011;5747;56.748;13.882;2023-08-21T09:13:13;4.47;;;2.20;;
11384;SDS011;5747;56.748;13.882;2023-08-21T09:15:43;4.77;;;2.00;;
11384;SDS011;5747;56.748;13.882;2023-08-21T09:18:14;4.67;;;2.40;;
11384;SDS011;5747;56.748;13.882;2023-08-21T09:20:44;5.27;;;2.30;;
11384;SDS011;5747;56.748;13.882;2023-08-21T09:23:15;6.27;;;2.43;;
11384;SDS011;5747;56.748;13.882;2023-08-21T09:25:45;5.90;;;2.07;;
11384;SDS011;5747;56.748;13.882;2023-08-21T09:28:17;5.23;;;2.10;;
11384;SDS011;5747;56.748;13.882;2023-08-21T09:30:48;3.50;;;1.93;;
11384;SDS011;5747;56.748;13.882;2023-08-21T09:33:18;4.07;;;2.20;;
11384;SDS011;5747;56.748;13.882;2023-08-21T09:35:48;3.27;;;1.93;;
11384;SDS011;5747;56.748;13.882;2023-08-21T09:38:19;4.73;;;1.80;;
11384;SDS011;5747;56.748;13.882;2023-08-21T09:40:51;3.87;;;1.90;;
11384;SDS011;5747;56.748;13.882;2023-08-21T09:43:20;3.67;;;1.90;;
11384;SDS011;5747;56.748;13.882;2023-08-21T09:45:49;4.67;;;1.73;;
11384;SDS011;5747;56.748;13.882;2023-08-21T09:48:19;4.97;;;1.70;;
11384;SDS011;5747;56.748;13.882;2023-08-21T09:50:51;4.57;;;1.80;;
11384;SDS011;5747;56.748;13.882;2023-08-21T09:53:20;5.23;;;1.80;;
11384;SDS011;5747;56.748;13.882;2023-08-21T09:55:50;3.70;;;1.43;;
11384;SDS011;5747;56.748;13.882;2023-08-21T09:58:21;3.10;;;2.00;;
11384;SDS011;5747;56.748;13.882;2023-08-21T10:00:49;4.70;;;1.80;;
11384;SDS011;5747;56.748;13.882;2023-08-21T10:03:23;2.30;;;1.60;;
11384;SDS011;5747;56.748;13.882;2023-08-21T10:05:56;5.33;;;2.00;;
11384;SDS011;5747;56.748;13.882;2023-08-21T10:08:26;7.00;;;2.27;;
11384;SDS011;5747;56.748;13.882;2023-08-21T10:10:55;4.63;;;2.00;;
11384;SDS011;5747;56.748;13.882;2023-08-21T10:13:29;5.43;;;2.30;;
11384;SDS011;5747;56.748;13.882;2023-08-21T10:15:58;3.73;;;1.80;;
11384;SDS011;5747;56.748;13.882;2023-08-21T10:18:29;3.77;;;1.70;;
11384;SDS011;5747;56.748;13.882;2023-08-21T10:21:11;5.37;;;2.33;;
11384;SDS011;5747;56.748;13.882;2023-08-21T10:23:40;5.50;;;2.17;;
11384;SDS011;5747;56.748;13.882;2023-08-21T10:26:12;3.40;;;2.07;;
11384;SDS011;5747;56.748;13.882;2023-08-21T10:28:41;4.10;;;2.00;;
11384;SDS011;5747;56.748;13.882;2023-08-21T10:31:26;5.90;;;2.17;;
11384;SDS011;5747;56.748;13.882;2023-08-21T10:34:00;4.77;;;1.93;;
11384;SDS011;5747;56.748;13.882;2023-08-21T10:37:00;5.07;;;1.90;;
11384;SDS011;5747;56.748;13.882;2023-08-21T10:39:36;4.20;;;2.40;;
11384;SDS011;5747;56.748;13.882;2023-08-21T10:42:07;3.40;;;1.80;;
11384;SDS011;5747;56.748;13.882;2023-08-21T10:44:47;4.53;;;2.23;;
11384;SDS011;5747;56.748;13.882;2023-08-21T10:47:19;3.00;;;1.70;;
11384;SDS011;5747;56.748;13.882;2023-08-21T10:49:50;4.77;;;1.90;;
11384;SDS011;5747;56.748;13.882;2023-08-21T10:52:21;3.30;;;1.83;;
11384;SDS011;5747;56.748;13.882;2023-08-21T10:54:52;3.20;;;1.47;;
11384;SDS011;5747;56.748;13.882;2023-08-21T10:57:22;3.40;;;1.77;;
11384;SDS011;5747;56.748;13.882;2023-08-21T10:59:51;3.20;;;1.60;;
11384;SDS011;5747;56.748;13.882;2023-08-21T11:02:20;4.87;;;1.80;;
11384;SDS011;5747;56.748;13.882;2023-08-21T11:04:49;7.00;;;1.80;;
11384;SDS011;5747;56.748;13.882;2023-08-21T11:07:17;4.50;;;1.63;;
11384;SDS011;5747;56.748;13.882;2023-08-21T11:09:47;6.37;;;1.73;;
11384;SDS011;5747;56.748;13.882;2023-08-21T11:12:16;4.47;;;1.90;;
11384;SDS011;5747;56.748;13.882;2023-08-21T11:14:45;6.07;;;1.80;;
11384;SDS011;5747;56.748;13.882;2023-08-21T11:17:13;3.63;;;1.77;;
11384;SDS011;5747;56.748;13.882;2023-08-21T11:19:42;3.57;;;1.60;;
11384;SDS011;5747;56.748;13.882;2023-08-21T11:22:10;2.07;;;1.30;;
11384;SDS011;5747;56.748;13.882;2023-08-21T11:24:39;3.20;;;1.43;;
11384;SDS011;5747;56.748;13.882;2023-08-21T11:27:10;3.57;;;1.63;;
11384;SDS011;5747;56.748;13.882;2023-08-21T11:29:41;2.87;;;1.60;;
11384;SDS011;5747;56.748;13.882;2023-08-21T11:32:10;4.00;;;1.53;;
11384;SDS011;5747;56.748;13.882;2023-08-21T11:34:41;3.20;;;1.60;;
11384;SDS011;5747;56.748;13.882;2023-08-21T11:37:10;2.67;;;1.50;;
11384;SDS011;5747;56.748;13.882;2023-08-21T11:39:39;3.47;;;1.40;;
11384;SDS011;5747;56.748;13.882;2023-08-21T11:42:13;6.13;;;1.60;;
11384;SDS011;5747;56.748;13.882;2023-08-21T11:44:43;3.87;;;1.70;;
11384;SDS011;5747;56.748;13.882;2023-08-21T11:47:12;7.33;;;1.70;;
11384;SDS011;5747;56.748;13.882;2023-08-21T11:49:41;3.03;;;1.50;;
11384;SDS011;5747;56.748;13.882;2023-08-21T11:52:11;2.17;;;1.40;;
11384;SDS011;5747;56.748;13.882;2023-08-21T11:54:40;2.23;;;1.37;;
11384;SDS011;5747;56.748;13.882;2023-08-21T11:57:11;2.93;;;1.50;;
11384;SDS011;5747;56.748;13.882;2023-08-21T11:59:41;3.63;;;1.10;;
11384;SDS011;5747;56.748;13.882;2023-08-21T12:02:10;3.90;;;1.20;;
11384;SDS011;5747;56.748;13.882;2023-08-21T12:04:41;2.87;;;1.50;;
11384;SDS011;5747;56.748;13.882;2023-08-21T12:07:10;4.37;;;1.70;;
11384;SDS011;5747;56.748;13.882;2023-08-21T12:09:39;3.50;;;1.50;;
11384;SDS011;5747;56.748;13.882;2023-08-21T12:12:14;4.23;;;1.60;;
11384;SDS011;5747;56.748;13.882;2023-08-21T12:14:43;4.17;;;1.70;;
11384;SDS011;5747;56.748;13.882;2023-08-21T12:17:11;3.00;;;1.33;;
11384;SDS011;5747;56.748;13.882;2023-08-21T12:19:39;4.93;;;1.50;;
11384;SDS011;5747;56.748;13.882;2023-08-21T12:22:08;2.93;;;1.83;;
11384;SDS011;5747;56.748;13.882;2023-08-21T12:24:36;2.57;;;1.47;;
11384;SDS011;5747;56.748;13.882;2023-08-21T12:27:04;3.90;;;1.50;;
11384;SDS011;5747;56.748;13.882;2023-08-21T12:29:36;4.50;;;1.70;;
11384;SDS011;5747;56.748;13.882;2023-08-21T12:32:04;3.27;;;1.60;;
11384;SDS011;5747;56.748;13.882;2023-08-21T12:34:32;3.43;;;1.60;;
11384;SDS011;5747;56.748;13.882;2023-08-21T12:37:00;6.57;;;1.80;;
11384;SDS011;5747;56.748;13.882;2023-08-21T12:39:30;6.07;;;1.80;;
11384;SDS011;5747;56.748;13.882;2023-08-21T12:41:58;2.80;;;1.67;;
11384;SDS011;5747;56.748;13.882;2023-08-21T12:44:26;3.77;;;1.30;;
11384;SDS011;5747;56.748;13.882;2023-08-21T12:46:56;2.10;;;1.47;;
11384;SDS011;5747;56.748;13.882;2023-08-21T12:49:25;2.70;;;1.63;;
11384;SDS011;5747;56.748;13.882;2023-08-21T12:51:53;2.93;;;1.50;;
11384;SDS011;5747;56.748;13.882;2023-08-21T12:54:21;1.77;;;1.30;;
11384;SDS011;5747;56.748;13.882;2023-08-21T12:56:49;2.50;;;1.27;;
11384;SDS011;5747;56.748;13.882;2023-08-21T12:59:18;3.73;;;1.30;;
11384;SDS011;5747;56.748;13.882;2023-08-21T13:01:46;3.47;;;1.50;;
11384;SDS011;5747;56.748;13.882;2023-08-21T13:04:15;3.07;;;1.70;;
11384;SDS011;5747;56.748;13.882;2023-08-21T13:06:44;4.63;;;1.60;;
11384;SDS011;5747;56.748;13.882;2023-08-21T13:09:12;4.43;;;1.60;;
11384;SDS011;5747;56.748;13.882;2023-08-21T13:11:40;3.17;;;1.40;;
11384;SDS011;5747;56.748;13.882;2023-08-21T13:14:08;2.63;;;1.47;;
11384;SDS011;5747;56.748;13.882;2023-08-21T13:16:36;2.50;;;1.50;;
11384;SDS011;5747;56.748;13.882;2023-08-21T13:19:04;3.87;;;1.63;;
11384;SDS011;5747;56.748;13.882;2023-08-21T13:21:33;3.40;;;1.60;;
11384;SDS011;5747;56.748;13.882;2023-08-21T13:24:02;3.10;;;1.60;;
11384;SDS011;5747;56.748;13.882;2023-08-21T13:26:32;5.67;;;1.60;;
11384;SDS011;5747;56.748;13.882;2023-08-21T13:29:00;4.37;;;1.70;;
11384;SDS011;5747;56.748;13.882;2023-08-21T13:31:28;4.03;;;1.87;;
11384;SDS011;5747;56.748;13.882;2023-08-21T13:33:56;4.97;;;2.00;;
11384;SDS011;5747;56.748;13.882;2023-08-21T13:36:24;4.50;;;1.67;;
11384;SDS011;5747;56.748;13.882;2023-08-21T13:38:56;3.77;;;1.77;;
11384;SDS011;5747;56.748;13.882;2023-08-21T13:41:25;4.37;;;2.03;;
11384;SDS011;5747;56.748;13.882;2023-08-21T13:43:53;5.47;;;1.87;;
11384;SDS011;5747;56.748;13.882;2023-08-21T13:46:21;4.60;;;1.90;;
11384;SDS011;5747;56.748;13.882;2023-08-21T13:48:49;3.47;;;1.60;;
11384;SDS011;5747;56.748;13.882;2023-08-21T13:51:17;4.57;;;1.70;;
11384;SDS011;5747;56.748;13.882;2023-08-21T13:53:47;3.17;;;1.67;;
11384;SDS011;5747;56.748;13.882;2023-08-21T13:56:17;4.20;;;1.60;;
11384;SDS011;5747;56.748;13.882;2023-08-21T13:58:45;5.00;;;1.80;;
11384;SDS011;5747;56.748;13.882;2023-08-21T14:01:13;3.73;;;1.83;;
11384;SDS011;5747;56.748;13.882;2023-08-21T14:03:41;4.10;;;1.77;;
11384;SDS011;5747;56.748;13.882;2023-08-21T14:06:10;2.87;;;1.50;;
11384;SDS011;5747;56.748;13.882;2023-08-21T14:08:38;3.20;;;1.43;;
11384;SDS011;5747;56.748;13.882;2023-08-21T14:11:06;5.63;;;1.67;;
11384;SDS011;5747;56.748;13.882;2023-08-21T14:13:36;2.60;;;1.50;;
11384;SDS011;5747;56.748;13.882;2023-08-21T14:16:04;6.03;;;1.60;;
11384;SDS011;5747;56.748;13.882;2023-08-21T14:18:32;3.90;;;1.70;;
11384;SDS011;5747;56.748;13.882;2023-08-21T14:21:00;7.53;;;1.70;;
11384;SDS011;5747;56.748;13.882;2023-08-21T14:23:28;3.83;;;1.53;;
11384;SDS011;5747;56.748;13.882;2023-08-21T14:25:59;6.30;;;1.90;;
11384;SDS011;5747;56.748;13.882;2023-08-21T14:28:28;2.57;;;1.70;;
11384;SDS011;5747;56.748;13.882;2023-08-21T14:30:57;4.60;;;1.83;;
11384;SDS011;5747;56.748;13.882;2023-08-21T14:33:26;3.40;;;1.90;;
11384;SDS011;5747;56.748;13.882;2023-08-21T14:35:54;5.97;;;1.97;;
11384;SDS011;5747;56.748;13.882;2023-08-21T14:38:23;4.07;;;1.80;;
11384;SDS011;5747;56.748;13.882;2023-08-21T14:40:51;3.67;;;1.67;;
11384;SDS011;5747;56.748;13.882;2023-08-21T14:43:20;3.13;;;1.70;;
11384;SDS011;5747;56.748;13.882;2023-08-21T14:45:49;4.40;;;1.70;;
11384;SDS011;5747;56.748;13.882;2023-08-21T14:48:18;4.70;;;1.40;;
11384;SDS011;5747;56.748;13.882;2023-08-21T14:50:46;4.90;;;1.80;;
11384;SDS011;5747;56.748;13.882;2023-08-21T14:53:15;6.87;;;1.60;;
11384;SDS011;5747;56.748;13.882;2023-08-21T14:55:43;2.10;;;1.60;;